sensor_id;sensor_type;location;lat;lon;timestamp;pressure;altitude;pressure_sealevel;temperature;humidity
43217;BME280;60511;42.686;23.300;2022-12-05T00:01:33;95551.47;;;22.40;28.31
43217;BME280;60511;42.686;23.300;2022-12-05T00:03:34;95589.31;;;22.70;28.52
43217;BME280;60511;42.686;23.300;2022-12-05T00:05:39;95556.72;;;22.45;28.32
43217;BME280;60511;42.686;23.300;2022-12-05T00:07:39;95544.16;;;22.41;28.33
43217;BME280;60511;42.686;23.300;2022-12-05T00:09:39;95589.63;;;22.69;28.43
43217;BME280;60511;42.686;23.300;2022-12-05T00:11:43;95606.59;;;22.69;28.33
43217;BME280;60511;42.686;23.300;2022-12-05T00:13:45;95556.09;;;22.40;28.39
43217;BME280;60511;42.686;23.300;2022-12-05T00:15:45;95551.78;;;22.39;28.18
43217;BME280;60511;42.686;23.300;2022-12-05T00:17:46;95560.03;;;22.42;28.58
43217;BME280;60511;42.686;23.300;2022-12-05T00:19:46;95570.00;;;22.51;28.50
43217;BME280;60511;42.686;23.300;2022-12-05T00:21:47;95574.41;;;22.55;28.49
43217;BME280;60511;42.686;23.300;2022-12-05T00:23:48;95569.72;;;22.43;28.47
43217;BME280;60511;42.686;23.300;2022-12-05T00:25:50;95556.88;;;22.40;28.41
43217;BME280;60511;42.686;23.300;2022-12-05T00:27:50;95578.41;;;22.58;28.49
43217;BME280;60511;42.686;23.300;2022-12-05T00:29:51;95594.09;;;22.64;28.63
43217;BME280;60511;42.686;23.300;2022-12-05T00:31:51;95604.41;;;22.62;28.62
43217;BME280;60511;42.686;23.300;2022-12-05T00:33:52;95620.25;;;22.73;28.09
43217;BME280;60511;42.686;23.300;2022-12-05T00:35:53;95572.56;;;22.47;28.23
43217;BME280;60511;42.686;23.300;2022-12-05T00:37:53;95583.34;;;22.56;28.21
43217;BME280;60511;42.686;23.300;2022-12-05T00:39:54;95526.00;;;22.12;28.44
43217;BME280;60511;42.686;23.300;2022-12-05T00:41:54;95518.69;;;22.12;28.50
43217;BME280;60511;42.686;23.300;2022-12-05T00:43:57;95563.53;;;22.43;28.47
43217;BME280;60511;42.686;23.300;2022-12-05T00:46:09;95612.59;;;22.75;28.47
43217;BME280;60511;42.686;23.300;2022-12-05T00:48:10;95598.03;;;22.67;28.32
43217;BME280;60511;42.686;23.300;2022-12-05T00:50:10;95608.31;;;22.74;28.41
43217;BME280;60511;42.686;23.300;2022-12-05T00:52:11;95559.09;;;22.38;28.39
43217;BME280;60511;42.686;23.300;2022-12-05T00:54:13;95576.16;;;22.60;28.39
43217;BME280;60511;42.686;23.300;2022-12-05T00:56:17;95595.34;;;22.67;28.47
43217;BME280;60511;42.686;23.300;2022-12-05T00:58:17;95594.19;;;22.77;28.52
43217;BME280;60511;42.686;23.300;2022-12-05T01:00:18;95576.44;;;22.67;28.47
43217;BME280;60511;42.686;23.300;2022-12-05T01:02:19;95570.31;;;22.58;28.57
43217;BME280;60511;42.686;23.300;2022-12-05T01:04:22;95596.72;;;22.73;28.41
43217;BME280;60511;42.686;23.300;2022-12-05T01:06:23;95589.41;;;22.74;28.37
43217;BME280;60511;42.686;23.300;2022-12-05T01:08:23;95561.59;;;22.52;28.56
43217;BME280;60511;42.686;23.300;2022-12-05T01:10:24;95555.41;;;22.52;28.55
43217;BME280;60511;42.686;23.300;2022-12-05T01:12:24;95550.81;;;22.52;28.41
43217;BME280;60511;42.686;23.300;2022-12-05T01:14:27;95564.28;;;22.52;28.24
43217;BME280;60511;42.686;23.300;2022-12-05T01:16:38;95583.56;;;22.72;28.23
43217;BME280;60511;42.686;23.300;2022-12-05T01:18:39;95538.16;;;22.44;28.30
43217;BME280;60511;42.686;23.300;2022-12-05T01:20:40;95575.47;;;22.72;28.07
43217;BME280;60511;42.686;23.300;2022-12-05T01:22:41;95556.50;;;22.51;28.17
43217;BME280;60511;42.686;23.300;2022-12-05T01:24:41;95578.69;;;22.65;28.38
43217;BME280;60511;42.686;23.300;2022-12-05T01:26:42;95415.97;;;21.66;28.51
43217;BME280;60511;42.686;23.300;2022-12-05T01:28:43;95568.81;;;22.69;28.37
43217;BME280;60511;42.686;23.300;2022-12-05T01:30:46;95553.50;;;22.52;28.61
43217;BME280;60511;42.686;23.300;2022-12-05T01:32:47;95564.72;;;22.63;28.27
43217;BME280;60511;42.686;23.300;2022-12-05T01:34:48;95537.34;;;22.43;28.37
43217;BME280;60511;42.686;23.300;2022-12-05T01:36:48;95521.81;;;22.40;28.27
43217;BME280;60511;42.686;23.300;2022-12-05T01:38:49;95544.16;;;22.50;28.44
43217;BME280;60511;42.686;23.300;2022-12-05T01:40:58;95549.19;;;22.60;28.42
43217;BME280;60511;42.686;23.300;2022-12-05T01:43:00;95546.97;;;22.62;28.41
43217;BME280;60511;42.686;23.300;2022-12-05T01:45:07;95541.56;;;22.53;28.45
43217;BME280;60511;42.686;23.300;2022-12-05T01:47:15;95523.06;;;22.43;28.20
43217;BME280;60511;42.686;23.300;2022-12-05T01:49:21;95536.69;;;22.46;28.43
43217;BME280;60511;42.686;23.300;2022-12-05T01:51:22;95552.16;;;22.67;28.51
43217;BME280;60511;42.686;23.300;2022-12-05T01:53:23;95499.81;;;22.30;28.32
43217;BME280;60511;42.686;23.300;2022-12-05T01:55:23;95559.78;;;22.65;28.38
43217;BME280;60511;42.686;23.300;2022-12-05T01:57:24;95546.38;;;22.48;28.40
43217;BME280;60511;42.686;23.300;2022-12-05T01:59:26;95551.75;;;22.56;28.23
43217;BME280;60511;42.686;23.300;2022-12-05T02:01:28;95520.34;;;22.43;28.24
43217;BME280;60511;42.686;23.300;2022-12-05T02:03:30;95490.75;;;22.34;29.08
43217;BME280;60511;42.686;23.300;2022-12-05T02:05:32;95505.63;;;22.40;28.91
43217;BME280;60511;42.686;23.300;2022-12-05T02:07:33;95518.75;;;22.51;28.97
43217;BME280;60511;42.686;23.300;2022-12-05T02:09:36;95562.91;;;22.76;28.84
43217;BME280;60511;42.686;23.300;2022-12-05T02:11:48;95527.66;;;22.42;28.33
43217;BME280;60511;42.686;23.300;2022-12-05T02:18:44;95560.56;;;22.65;28.94
43217;BME280;60511;42.686;23.300;2022-12-05T02:34:11;95527.53;;;22.39;28.75
43217;BME280;60511;42.686;23.300;2022-12-05T02:36:21;95562.69;;;22.60;28.79
43217;BME280;60511;42.686;23.300;2022-12-05T02:42:50;95542.66;;;22.61;28.19
43217;BME280;60511;42.686;23.300;2022-12-05T02:44:59;95499.19;;;22.24;28.66
43217;BME280;60511;42.686;23.300;2022-12-05T02:47:02;95526.41;;;22.40;28.56
43217;BME280;60511;42.686;23.300;2022-12-05T02:49:08;95518.47;;;22.43;28.51
43217;BME280;60511;42.686;23.300;2022-12-05T02:51:13;95541.78;;;22.48;28.45
43217;BME280;60511;42.686;23.300;2022-12-05T02:53:15;95512.63;;;22.41;28.77
43217;BME280;60511;42.686;23.300;2022-12-05T02:55:17;95457.06;;;22.02;28.67
43217;BME280;60511;42.686;23.300;2022-12-05T02:57:20;95473.84;;;22.07;28.89
43217;BME280;60511;42.686;23.300;2022-12-05T02:59:21;95472.88;;;22.12;28.65
43217;BME280;60511;42.686;23.300;2022-12-05T03:01:23;95517.53;;;22.39;28.56
43217;BME280;60511;42.686;23.300;2022-12-05T03:03:25;95471.88;;;22.17;28.57
43217;BME280;60511;42.686;23.300;2022-12-05T03:05:40;95519.25;;;22.44;28.50
43217;BME280;60511;42.686;23.300;2022-12-05T03:07:44;95527.66;;;22.42;28.48
43217;BME280;60511;42.686;23.300;2022-12-05T03:09:50;95513.09;;;22.35;29.05
43217;BME280;60511;42.686;23.300;2022-12-05T03:14:30;95548.09;;;22.52;28.76
43217;BME280;60511;42.686;23.300;2022-12-05T03:16:36;95503.44;;;22.34;28.46
43217;BME280;60511;42.686;23.300;2022-12-05T03:18:41;95486.31;;;22.21;28.68
43217;BME280;60511;42.686;23.300;2022-12-05T03:20:53;95496.50;;;22.24;28.95
43217;BME280;60511;42.686;23.300;2022-12-05T03:23:00;95467.31;;;22.08;28.58
43217;BME280;60511;42.686;23.300;2022-12-05T03:25:03;95505.66;;;22.23;28.48
43217;BME280;60511;42.686;23.300;2022-12-05T03:27:31;95540.78;;;22.53;28.70
43217;BME280;60511;42.686;23.300;2022-12-05T03:29:37;95526.56;;;22.43;28.95
43217;BME280;60511;42.686;23.300;2022-12-05T03:31:44;95528.19;;;22.36;28.67
43217;BME280;60511;42.686;23.300;2022-12-05T03:33:46;95409.91;;;21.70;28.60
43217;BME280;60511;42.686;23.300;2022-12-05T03:38:08;95518.69;;;22.30;28.75
43217;BME280;60511;42.686;23.300;2022-12-05T03:40:25;95542.72;;;22.52;28.80
43217;BME280;60511;42.686;23.300;2022-12-05T03:42:31;95553.50;;;22.52;28.76
43217;BME280;60511;42.686;23.300;2022-12-05T03:44:47;95514.53;;;22.32;28.87
43217;BME280;60511;42.686;23.300;2022-12-05T03:46:57;95481.28;;;22.11;29.00
43217;BME280;60511;42.686;23.300;2022-12-05T03:51:07;95504.88;;;22.22;28.63
43217;BME280;60511;42.686;23.300;2022-12-05T03:53:15;95544.16;;;22.50;28.49
43217;BME280;60511;42.686;23.300;2022-12-05T03:55:18;95524.88;;;22.30;28.86
43217;BME280;60511;42.686;23.300;2022-12-05T04:01:32;95529.28;;;22.35;28.68
43217;BME280;60511;42.686;23.300;2022-12-05T04:03:46;95509.97;;;22.24;28.67
43217;BME280;60511;42.686;23.300;2022-12-05T04:05:55;95517.41;;;22.27;28.52
43217;BME280;60511;42.686;23.300;2022-12-05T04:08:01;95549.09;;;22.48;28.77
43217;BME280;60511;42.686;23.300;2022-12-05T04:10:10;95487.94;;;22.13;28.63
43217;BME280;60511;42.686;23.300;2022-12-05T04:12:18;95510.91;;;22.19;28.75
43217;BME280;60511;42.686;23.300;2022-12-05T04:14:25;95489.97;;;22.16;28.76
43217;BME280;60511;42.686;23.300;2022-12-05T04:16:35;95486.97;;;22.18;28.86
43217;BME280;60511;42.686;23.300;2022-12-05T04:19:02;95523.41;;;22.41;28.84
43217;BME280;60511;42.686;23.300;2022-12-05T04:21:04;95502.66;;;22.24;28.76
43217;BME280;60511;42.686;23.300;2022-12-05T04:23:24;95525.13;;;22.46;28.46
43217;BME280;60511;42.686;23.300;2022-12-05T04:25:28;95466.38;;;22.13;28.91
43217;BME280;60511;42.686;23.300;2022-12-05T04:30:16;95483.34;;;22.14;28.78
43217;BME280;60511;42.686;23.300;2022-12-05T04:32:18;95486.66;;;22.11;28.88
43217;BME280;60511;42.686;23.300;2022-12-05T04:34:24;95490.78;;;22.17;28.76
43217;BME280;60511;42.686;23.300;2022-12-05T04:38:49;95516.63;;;22.26;28.81
43217;BME280;60511;42.686;23.300;2022-12-05T04:41:00;95392.38;;;21.55;28.72
43217;BME280;60511;42.686;23.300;2022-12-05T04:43:01;95547.81;;;22.45;29.04
43217;BME280;60511;42.686;23.300;2022-12-05T04:45:07;95445.88;;;21.82;28.71
43217;BME280;60511;42.686;23.300;2022-12-05T04:47:11;95530.56;;;22.37;28.70
43217;BME280;60511;42.686;23.300;2022-12-05T04:49:17;95370.22;;;21.40;28.78
43217;BME280;60511;42.686;23.300;2022-12-05T04:51:24;95519.16;;;22.32;28.93
43217;BME280;60511;42.686;23.300;2022-12-05T04:53:28;95530.22;;;22.39;28.62
43217;BME280;60511;42.686;23.300;2022-12-05T04:55:31;95554.31;;;22.44;28.94
43217;BME280;60511;42.686;23.300;2022-12-05T04:58:05;95540.84;;;22.44;28.75
43217;BME280;60511;42.686;23.300;2022-12-05T05:00:07;95509.66;;;22.25;28.53
43217;BME280;60511;42.686;23.300;2022-12-05T05:02:09;95552.72;;;22.43;28.71
43217;BME280;60511;42.686;23.300;2022-12-05T05:04:16;95552.88;;;22.46;29.08
43217;BME280;60511;42.686;23.300;2022-12-05T05:06:18;95525.03;;;22.25;28.81
43217;BME280;60511;42.686;23.300;2022-12-05T05:08:23;95465.34;;;21.88;29.02
43217;BME280;60511;42.686;23.300;2022-12-05T05:10:38;95510.31;;;22.14;28.79
43217;BME280;60511;42.686;23.300;2022-12-05T05:12:40;95520.09;;;22.27;28.81
43217;BME280;60511;42.686;23.300;2022-12-05T05:14:40;95538.19;;;22.26;29.00
43217;BME280;60511;42.686;23.300;2022-12-05T05:16:41;95543.91;;;22.25;28.83
43217;BME280;60511;42.686;23.300;2022-12-05T05:18:41;95535.81;;;22.25;29.10
43217;BME280;60511;42.686;23.300;2022-12-05T05:20:42;95534.88;;;22.30;28.83
43217;BME280;60511;42.686;23.300;2022-12-05T05:22:42;95543.28;;;22.28;28.73
43217;BME280;60511;42.686;23.300;2022-12-05T05:24:42;95534.84;;;22.21;28.83
43217;BME280;60511;42.686;23.300;2022-12-05T05:26:44;95558.66;;;22.27;28.89
43217;BME280;60511;42.686;23.300;2022-12-05T05:28:46;95471.88;;;21.78;28.64
43217;BME280;60511;42.686;23.300;2022-12-05T05:30:47;95569.09;;;22.38;28.65
43217;BME280;60511;42.686;23.300;2022-12-05T05:32:47;95523.63;;;22.10;28.73
43217;BME280;60511;42.686;23.300;2022-12-05T05:34:48;95542.34;;;22.24;28.95
43217;BME280;60511;42.686;23.300;2022-12-05T05:36:51;95549.78;;;22.27;28.86
43217;BME280;60511;42.686;23.300;2022-12-05T05:38:54;95523.78;;;22.14;28.83
43217;BME280;60511;42.686;23.300;2022-12-05T05:40:55;95556.59;;;22.33;29.18
43217;BME280;60511;42.686;23.300;2022-12-05T05:42:55;95528.50;;;22.17;28.93
43217;BME280;60511;42.686;23.300;2022-12-05T05:44:56;95509.88;;;22.03;28.97
43217;BME280;60511;42.686;23.300;2022-12-05T05:46:56;95536.16;;;22.23;29.03
43217;BME280;60511;42.686;23.300;2022-12-05T05:48:57;95540.13;;;22.17;28.90
43217;BME280;60511;42.686;23.300;2022-12-05T05:50:59;95559.09;;;22.38;28.78
43217;BME280;60511;42.686;23.300;2022-12-05T05:52:59;95554.84;;;22.29;28.82
43217;BME280;60511;42.686;23.300;2022-12-05T05:55:00;95563.56;;;22.34;28.85
43217;BME280;60511;42.686;23.300;2022-12-05T05:57:00;95564.03;;;22.36;28.77
43217;BME280;60511;42.686;23.300;2022-12-05T05:59:02;95555.63;;;22.20;28.77
43217;BME280;60511;42.686;23.300;2022-12-05T06:03:03;95573.09;;;22.32;28.93
43217;BME280;60511;42.686;23.300;2022-12-05T06:05:04;95555.63;;;22.20;28.80
43217;BME280;60511;42.686;23.300;2022-12-05T06:07:04;95599.41;;;22.43;29.06
43217;BME280;60511;42.686;23.300;2022-12-05T06:09:06;95581.34;;;22.35;28.98
43217;BME280;60511;42.686;23.300;2022-12-05T06:11:08;95559.59;;;22.23;28.82
43217;BME280;60511;42.686;23.300;2022-12-05T06:13:09;95594.78;;;22.44;28.94
43217;BME280;60511;42.686;23.300;2022-12-05T06:15:10;95566.59;;;22.24;29.00
43217;BME280;60511;42.686;23.300;2022-12-05T06:17:10;95560.88;;;22.17;28.72
43217;BME280;60511;42.686;23.300;2022-12-05T06:19:11;95559.78;;;22.18;28.98
43217;BME280;60511;42.686;23.300;2022-12-05T06:21:11;95597.03;;;22.42;29.02
43217;BME280;60511;42.686;23.300;2022-12-05T06:23:12;95563.75;;;22.12;29.11
43217;BME280;60511;42.686;23.300;2022-12-05T06:25:12;95489.81;;;21.74;29.20
43217;BME280;60511;42.686;23.300;2022-12-05T06:27:13;95549.63;;;22.15;28.86
43217;BME280;60511;42.686;23.300;2022-12-05T06:29:13;95550.44;;;22.15;29.29
43217;BME280;60511;42.686;23.300;2022-12-05T06:31:19;95599.41;;;22.43;28.92
43217;BME280;60511;42.686;23.300;2022-12-05T06:33:20;95556.91;;;22.14;29.11
43217;BME280;60511;42.686;23.300;2022-12-05T06:35:21;95543.94;;;22.07;28.72
43217;BME280;60511;42.686;23.300;2022-12-05T06:37:22;95561.03;;;22.29;29.00
43217;BME280;60511;42.686;23.300;2022-12-05T06:39:22;95465.75;;;21.60;28.86
43217;BME280;60511;42.686;23.300;2022-12-05T06:41:23;95555.16;;;22.18;29.03
43217;BME280;60511;42.686;23.300;2022-12-05T06:43:26;95561.69;;;22.17;28.72
43217;BME280;60511;42.686;23.300;2022-12-05T06:45:27;95557.88;;;22.18;28.93
43217;BME280;60511;42.686;23.300;2022-12-05T06:47:27;95560.09;;;22.16;28.76
43217;BME280;60511;42.686;23.300;2022-12-05T06:49:28;95572.63;;;22.30;28.96
43217;BME280;60511;42.686;23.300;2022-12-05T06:51:31;95599.53;;;22.47;28.59
43217;BME280;60511;42.686;23.300;2022-12-05T06:53:31;95547.41;;;22.08;29.06
43217;BME280;60511;42.686;23.300;2022-12-05T06:55:33;95564.50;;;22.21;28.92
43217;BME280;60511;42.686;23.300;2022-12-05T06:57:33;95564.22;;;22.14;28.93
43217;BME280;60511;42.686;23.300;2022-12-05T06:59:33;95562.00;;;22.16;28.61
43217;BME280;60511;42.686;23.300;2022-12-05T07:01:34;95569.13;;;22.20;28.76
43217;BME280;60511;42.686;23.300;2022-12-05T07:03:42;95566.88;;;22.22;28.60
43217;BME280;60511;42.686;23.300;2022-12-05T07:05:47;95586.72;;;22.35;28.80
43217;BME280;60511;42.686;23.300;2022-12-05T07:07:48;95530.81;;;21.97;28.65
43217;BME280;60511;42.686;23.300;2022-12-05T07:09:48;95544.41;;;22.10;28.64
43217;BME280;60511;42.686;23.300;2022-12-05T07:11:52;95553.28;;;22.10;28.99
43217;BME280;60511;42.686;23.300;2022-12-05T07:13:53;95603.38;;;22.37;28.90
43217;BME280;60511;42.686;23.300;2022-12-05T07:15:53;95560.91;;;22.08;28.69
43217;BME280;60511;42.686;23.300;2022-12-05T07:17:54;95499.16;;;21.77;28.72
43217;BME280;60511;42.686;23.300;2022-12-05T07:19:54;95584.97;;;22.31;28.87
43217;BME280;60511;42.686;23.300;2022-12-05T07:21:55;95539.38;;;21.99;28.79
43217;BME280;60511;42.686;23.300;2022-12-05T07:23:55;95614.19;;;22.37;28.86
43217;BME280;60511;42.686;23.300;2022-12-05T07:25:55;95581.66;;;22.25;28.56
43217;BME280;60511;42.686;23.300;2022-12-05T07:27:59;95578.66;;;22.26;28.82
43217;BME280;60511;42.686;23.300;2022-12-05T07:29:59;95549.66;;;22.06;28.67
43217;BME280;60511;42.686;23.300;2022-12-05T07:32:00;95586.59;;;22.32;28.94
43217;BME280;60511;42.686;23.300;2022-12-05T07:34:01;95570.72;;;22.13;28.72
43217;BME280;60511;42.686;23.300;2022-12-05T07:36:03;95596.09;;;22.29;28.74
43217;BME280;60511;42.686;23.300;2022-12-05T07:38:04;95594.63;;;22.23;28.84
43217;BME280;60511;42.686;23.300;2022-12-05T07:40:05;95592.78;;;22.23;28.70
43217;BME280;60511;42.686;23.300;2022-12-05T07:42:05;95585.75;;;22.31;28.60
43217;BME280;60511;42.686;23.300;2022-12-05T07:44:06;95585.47;;;22.24;28.77
43217;BME280;60511;42.686;23.300;2022-12-05T07:46:08;95630.13;;;22.51;28.62
43217;BME280;60511;42.686;23.300;2022-12-05T07:48:10;95555.34;;;22.04;28.53
43217;BME280;60511;42.686;23.300;2022-12-05T07:50:11;95242.00;;;19.93;29.00
43217;BME280;60511;42.686;23.300;2022-12-05T07:52:11;95631.75;;;22.52;29.13
43217;BME280;60511;42.686;23.300;2022-12-05T07:54:12;95592.91;;;22.27;28.95
43217;BME280;60511;42.686;23.300;2022-12-05T07:56:15;95630.31;;;22.46;29.08
43217;BME280;60511;42.686;23.300;2022-12-05T07:58:16;95625.22;;;22.53;28.57
43217;BME280;60511;42.686;23.300;2022-12-05T08:00:17;95603.38;;;22.37;28.82
43217;BME280;60511;42.686;23.300;2022-12-05T08:02:18;95588.97;;;22.24;28.72
43217;BME280;60511;42.686;23.300;2022-12-05T08:04:19;95587.69;;;22.31;28.84
43217;BME280;60511;42.686;23.300;2022-12-05T08:06:22;95606.22;;;22.41;29.05
43217;BME280;60511;42.686;23.300;2022-12-05T08:08:25;95570.09;;;22.24;28.75
43217;BME280;60511;42.686;23.300;2022-12-05T08:10:25;95582.59;;;22.29;28.56
43217;BME280;60511;42.686;23.300;2022-12-05T08:12:26;95583.41;;;22.30;28.49
43217;BME280;60511;42.686;23.300;2022-12-05T08:14:26;95581.50;;;22.30;28.79
43217;BME280;60511;42.686;23.300;2022-12-05T08:16:28;95579.44;;;22.27;28.60
43217;BME280;60511;42.686;23.300;2022-12-05T08:18:29;95575.63;;;22.11;28.55
43217;BME280;60511;42.686;23.300;2022-12-05T08:20:30;95593.69;;;22.36;28.83
43217;BME280;60511;42.686;23.300;2022-12-05T08:22:30;95618.41;;;22.47;28.73
43217;BME280;60511;42.686;23.300;2022-12-05T08:24:31;95605.59;;;22.44;28.47
43217;BME280;60511;42.686;23.300;2022-12-05T08:26:32;95593.69;;;22.36;28.63
43217;BME280;60511;42.686;23.300;2022-12-05T08:28:33;95632.50;;;22.61;28.68
43217;BME280;60511;42.686;23.300;2022-12-05T08:30:34;95586.84;;;22.39;28.71
43217;BME280;60511;42.686;23.300;2022-12-05T08:32:34;95583.41;;;22.30;28.58
43217;BME280;60511;42.686;23.300;2022-12-05T08:34:35;95631.44;;;22.54;28.59
43217;BME280;60511;42.686;23.300;2022-12-05T08:36:35;95602.91;;;22.35;28.62
43217;BME280;60511;42.686;23.300;2022-12-05T08:38:36;95580.06;;;22.33;28.56
43217;BME280;60511;42.686;23.300;2022-12-05T08:40:36;95593.38;;;22.38;28.39
43217;BME280;60511;42.686;23.300;2022-12-05T08:42:37;95606.06;;;22.46;28.34
43217;BME280;60511;42.686;23.300;2022-12-05T08:44:37;95602.56;;;22.45;28.92
43217;BME280;60511;42.686;23.300;2022-12-05T08:46:39;95572.13;;;22.36;28.54
43217;BME280;60511;42.686;23.300;2022-12-05T08:48:39;95533.13;;;22.16;28.48
43217;BME280;60511;42.686;23.300;2022-12-05T08:50:39;95613.13;;;22.59;28.19
43217;BME280;60511;42.686;23.300;2022-12-05T08:52:41;95593.03;;;22.48;28.72
43217;BME280;60511;42.686;23.300;2022-12-05T08:54:41;95604.72;;;22.61;28.53
43217;BME280;60511;42.686;23.300;2022-12-05T08:56:42;95587.16;;;22.46;28.27
43217;BME280;60511;42.686;23.300;2022-12-05T08:58:42;95601.28;;;22.52;28.25
43217;BME280;60511;42.686;23.300;2022-12-05T09:00:42;95606.69;;;22.52;28.51
43217;BME280;60511;42.686;23.300;2022-12-05T09:02:43;95592.72;;;22.50;28.49
43217;BME280;60511;42.686;23.300;2022-12-05T09:04:43;95583.06;;;22.40;28.26
43217;BME280;60511;42.686;23.300;2022-12-05T09:06:44;95603.78;;;22.57;28.17
43217;BME280;60511;42.686;23.300;2022-12-05T09:08:44;95566.56;;;22.33;28.27
43217;BME280;60511;42.686;23.300;2022-12-05T09:10:45;95581.00;;;22.45;28.40
43217;BME280;60511;42.686;23.300;2022-12-05T09:12:45;95624.38;;;22.70;28.28
43217;BME280;60511;42.686;23.300;2022-12-05T09:14:46;95621.50;;;22.75;28.47
43217;BME280;60511;42.686;23.300;2022-12-05T09:16:46;95613.41;;;22.75;28.48
43217;BME280;60511;42.686;23.300;2022-12-05T09:18:48;95616.28;;;22.70;28.64
43217;BME280;60511;42.686;23.300;2022-12-05T09:20:48;95575.41;;;22.51;28.44
43217;BME280;60511;42.686;23.300;2022-12-05T09:22:51;95585.22;;;22.55;28.46
43217;BME280;60511;42.686;23.300;2022-12-05T09:24:51;95591.06;;;22.57;28.19
43217;BME280;60511;42.686;23.300;2022-12-05T09:26:51;95574.56;;;22.59;28.56
43217;BME280;60511;42.686;23.300;2022-12-05T09:28:52;95588.22;;;22.62;28.47
43217;BME280;60511;42.686;23.300;2022-12-05T09:31:01;95594.72;;;22.61;28.48
43217;BME280;60511;42.686;23.300;2022-12-05T09:33:02;95533.56;;;22.36;28.47
43217;BME280;60511;42.686;23.300;2022-12-05T09:35:02;95567.94;;;22.56;28.71
43217;BME280;60511;42.686;23.300;2022-12-05T09:37:06;95446.97;;;21.81;28.44
43217;BME280;60511;42.686;23.300;2022-12-05T09:39:07;95578.34;;;22.66;28.28
43217;BME280;60511;42.686;23.300;2022-12-05T09:48:37;95544.94;;;22.50;28.31
43217;BME280;60511;42.686;23.300;2022-12-05T09:50:44;95560.28;;;22.58;28.48
43217;BME280;60511;42.686;23.300;2022-12-05T09:54:49;95561.03;;;22.67;28.47
43217;BME280;60511;42.686;23.300;2022-12-05T09:56:51;95570.41;;;22.70;28.45
43217;BME280;60511;42.686;23.300;2022-12-05T09:58:54;95548.09;;;22.52;28.48
43217;BME280;60511;42.686;23.300;2022-12-05T10:01:03;95590.03;;;22.79;28.33
43217;BME280;60511;42.686;23.300;2022-12-05T10:03:37;95583.53;;;22.80;28.25
43217;BME280;60511;42.686;23.300;2022-12-05T10:05:52;95582.41;;;22.81;28.51
43217;BME280;60511;42.686;23.300;2022-12-05T10:15:36;95566.69;;;22.83;28.33
43217;BME280;60511;42.686;23.300;2022-12-05T10:17:22;95584.00;;;22.82;28.70
43217;BME280;60511;42.686;23.300;2022-12-05T10:19:32;95538.25;;;22.56;28.63
43217;BME280;60511;42.686;23.300;2022-12-05T10:21:55;95411.94;;;21.81;28.51
43217;BME280;60511;42.686;23.300;2022-12-05T10:26:02;95551.31;;;22.75;28.99
43217;BME280;60511;42.686;23.300;2022-12-05T10:28:14;95495.34;;;22.34;28.92
43217;BME280;60511;42.686;23.300;2022-12-05T10:30:24;95570.16;;;22.84;28.81
43217;BME280;60511;42.686;23.300;2022-12-05T10:32:48;95525.22;;;22.58;28.91
43217;BME280;60511;42.686;23.300;2022-12-05T10:34:52;95531.56;;;22.62;29.02
43217;BME280;60511;42.686;23.300;2022-12-05T10:36:57;95567.47;;;22.84;29.02
43217;BME280;60511;42.686;23.300;2022-12-05T10:39:00;95527.13;;;22.58;29.02
43217;BME280;60511;42.686;23.300;2022-12-05T10:41:10;95533.72;;;22.69;28.80
43217;BME280;60511;42.686;23.300;2022-12-05T10:43:13;95501.16;;;22.44;28.94
43217;BME280;60511;42.686;23.300;2022-12-05T10:45:19;95527.88;;;22.67;28.80
43217;BME280;60511;42.686;23.300;2022-12-05T10:47:20;95502.72;;;22.54;28.97
43217;BME280;60511;42.686;23.300;2022-12-05T10:49:21;95526.75;;;22.68;28.99
43217;BME280;60511;42.686;23.300;2022-12-05T10:51:25;95558.25;;;22.85;29.15
43217;BME280;60511;42.686;23.300;2022-12-05T10:53:38;95523.41;;;22.71;29.47
43217;BME280;60511;42.686;23.300;2022-12-05T10:55:42;95545.22;;;22.87;29.10
43217;BME280;60511;42.686;23.300;2022-12-05T10:57:48;95524.91;;;22.60;29.11
43217;BME280;60511;42.686;23.300;2022-12-05T10:59:49;95527.09;;;22.66;29.08
43217;BME280;60511;42.686;23.300;2022-12-05T11:01:52;95531.03;;;22.69;29.21
43217;BME280;60511;42.686;23.300;2022-12-05T11:04:00;95544.09;;;22.88;29.30
43217;BME280;60511;42.686;23.300;2022-12-05T11:06:23;95524.47;;;22.79;29.07
43217;BME280;60511;42.686;23.300;2022-12-05T11:08:32;95512.00;;;22.65;29.13
43217;BME280;60511;42.686;23.300;2022-12-05T11:10:35;95494.41;;;22.59;29.09
43217;BME280;60511;42.686;23.300;2022-12-05T11:12:38;95482.28;;;22.44;29.13
43217;BME280;60511;42.686;23.300;2022-12-05T11:15:05;95508.97;;;22.67;28.98
43217;BME280;60511;42.686;23.300;2022-12-05T11:17:23;95552.88;;;22.85;29.25
43217;BME280;60511;42.686;23.300;2022-12-05T11:19:28;95529.34;;;22.85;29.39
43217;BME280;60511;42.686;23.300;2022-12-05T11:21:41;95521.94;;;22.82;29.40
43217;BME280;60511;42.686;23.300;2022-12-05T11:23:42;95480.81;;;22.56;29.47
43217;BME280;60511;42.686;23.300;2022-12-05T11:25:42;95489.47;;;22.61;29.07
43217;BME280;60511;42.686;23.300;2022-12-05T11:27:43;95502.78;;;22.66;28.85
43217;BME280;60511;42.686;23.300;2022-12-05T11:29:53;95514.19;;;22.72;29.18
43217;BME280;60511;42.686;23.300;2022-12-05T11:31:54;95480.00;;;22.55;28.93
43217;BME280;60511;42.686;23.300;2022-12-05T11:34:16;95515.44;;;22.75;29.15
43217;BME280;60511;42.686;23.300;2022-12-05T11:36:34;95468.63;;;22.50;29.09
43217;BME280;60511;42.686;23.300;2022-12-05T11:38:35;95516.53;;;22.82;29.20
43217;BME280;60511;42.686;23.300;2022-12-05T11:40:52;95513.38;;;22.80;28.83
43217;BME280;60511;42.686;23.300;2022-12-05T11:43:10;95502.88;;;22.79;28.96
43217;BME280;60511;42.686;23.300;2022-12-05T11:45:16;95499.41;;;22.78;28.88
43217;BME280;60511;42.686;23.300;2022-12-05T12:06:32;95471.34;;;22.71;29.05